createdAt,value
2022-10-06T00:00:49.454Z,10.18
2022-10-06T00:03:34.802Z,10.18
2022-10-06T00:06:05.144Z,10.18
2022-10-06T00:08:48.129Z,10.18
2022-10-06T00:11:17.639Z,10.17
2022-10-06T00:14:00.107Z,10.16
2022-10-06T00:16:29.323Z,10.15
2022-10-06T00:18:58.989Z,10.14
2022-10-06T00:21:41.349Z,10.13
2022-10-06T00:24:24.264Z,10.11
2022-10-06T00:26:53.532Z,10.11
2022-10-06T00:29:37.193Z,10.12
2022-10-06T00:32:06.871Z,10.12
2022-10-06T00:34:39.561Z,10.12
2022-10-06T00:37:08.952Z,10.10
2022-10-06T00:39:37.819Z,10.09
2022-10-06T00:42:06.648Z,10.07
2022-10-06T00:44:35.580Z,10.05
2022-10-06T00:47:20.074Z,10.03
2022-10-06T00:50:03.000Z,10.01
2022-10-06T00:52:45.844Z,10.00
2022-10-06T00:55:16.171Z,9.98
2022-10-06T00:57:46.972Z,9.97
2022-10-06T01:00:16.548Z,9.95
2022-10-06T01:02:53.410Z,9.93
2022-10-06T01:05:28.518Z,9.91
2022-10-06T01:07:58.156Z,9.89
2022-10-06T01:10:42.406Z,9.87
2022-10-06T01:13:13.956Z,9.85
2022-10-06T01:16:29.685Z,9.84
2022-10-06T01:19:27.552Z,9.82
2022-10-06T01:22:14.749Z,9.80
2022-10-06T01:24:58.191Z,9.78
2022-10-06T01:27:30.953Z,9.77
2022-10-06T01:30:20.077Z,9.76
2022-10-06T01:32:49.056Z,9.76
2022-10-06T01:35:31.459Z,9.75
2022-10-06T01:38:00.373Z,9.74
2022-10-06T01:40:45.280Z,9.73
2022-10-06T01:43:14.721Z,9.73
2022-10-06T01:45:59.010Z,9.72
2022-10-06T01:48:28.751Z,9.70
2022-10-06T01:51:16.247Z,9.68
2022-10-06T01:53:46.063Z,9.67
2022-10-06T01:56:15.905Z,9.67
2022-10-06T01:58:58.610Z,9.65
2022-10-06T02:01:28.356Z,9.66
2022-10-06T02:03:58.019Z,9.66
2022-10-06T02:06:41.252Z,9.67
2022-10-06T02:09:24.284Z,9.67
2022-10-06T02:11:54.858Z,9.67
2022-10-06T02:14:24.014Z,9.67
2022-10-06T02:16:53.027Z,9.68
2022-10-06T02:19:22.107Z,9.69
2022-10-06T02:21:51.929Z,9.69
2022-10-06T02:24:20.846Z,9.69
2022-10-06T02:26:49.917Z,9.70
2022-10-06T02:29:18.918Z,9.70
2022-10-06T02:31:48.186Z,9.71
2022-10-06T02:34:17.664Z,9.71
2022-10-06T02:36:47.142Z,9.71
2022-10-06T02:39:29.831Z,9.71
2022-10-06T02:41:58.893Z,9.70
2022-10-06T02:44:27.718Z,9.70
2022-10-06T02:46:57.433Z,9.71
2022-10-06T02:49:40.314Z,9.71
2022-10-06T02:52:09.330Z,9.71
2022-10-06T02:54:52.317Z,9.72
2022-10-06T02:57:35.371Z,9.73
2022-10-06T03:00:18.553Z,9.73
2022-10-06T03:02:50.064Z,9.75
2022-10-06T03:05:32.624Z,9.76
2022-10-06T03:08:16.003Z,9.75
2022-10-06T03:10:45.550Z,9.74
2022-10-06T03:13:29.030Z,9.73
2022-10-06T03:16:20.478Z,9.73
2022-10-06T03:19:03.799Z,9.73
2022-10-06T03:21:47.169Z,9.73
2022-10-06T03:24:16.229Z,9.73
2022-10-06T03:26:50.394Z,9.72
2022-10-06T03:29:21.151Z,9.72
2022-10-06T03:32:07.478Z,9.72
2022-10-06T03:34:37.830Z,9.71
2022-10-06T03:37:23.064Z,9.70
2022-10-06T03:40:06.455Z,9.70
2022-10-06T03:42:35.397Z,9.70
2022-10-06T03:45:04.632Z,9.72
2022-10-06T03:47:34.255Z,9.71
2022-10-06T03:50:17.781Z,9.71
2022-10-06T03:52:51.499Z,9.70
2022-10-06T03:55:22.470Z,9.70
2022-10-06T03:57:51.421Z,9.69
2022-10-06T04:00:34.939Z,9.69
2022-10-06T04:03:04.081Z,9.69
2022-10-06T04:05:54.473Z,9.69
2022-10-06T04:08:24.608Z,9.69
2022-10-06T04:10:54.836Z,9.70
2022-10-06T04:13:38.604Z,9.70
2022-10-06T04:16:18.878Z,9.70
2022-10-06T04:18:51.557Z,9.70
2022-10-06T04:21:21.316Z,9.69
2022-10-06T04:24:05.278Z,9.70
2022-10-06T04:26:50.240Z,9.71
2022-10-06T04:29:33.898Z,9.71
2022-10-06T04:32:16.477Z,9.72
2022-10-06T04:34:45.548Z,9.72
2022-10-06T04:37:29.168Z,9.72
2022-10-06T04:39:58.535Z,9.72
2022-10-06T04:42:42.150Z,9.72
2022-10-06T04:45:28.697Z,9.74
2022-10-06T04:48:11.133Z,9.76
2022-10-06T04:50:40.475Z,9.79
2022-10-06T04:53:26.385Z,9.84
2022-10-06T04:56:12.355Z,9.90
2022-10-06T04:58:44.873Z,9.96
2022-10-06T05:01:33.336Z,10.02
2022-10-06T05:04:06.523Z,10.08
2022-10-06T05:06:50.525Z,10.13
2022-10-06T05:09:32.954Z,10.18
2022-10-06T05:12:17.159Z,10.23
2022-10-06T05:14:47.120Z,10.28
2022-10-06T05:17:16.596Z,10.34
2022-10-06T05:19:45.973Z,10.39
2022-10-06T05:22:28.946Z,10.43
2022-10-06T05:24:57.814Z,10.46
2022-10-06T05:27:26.696Z,10.49
2022-10-06T05:29:55.649Z,10.55
2022-10-06T05:32:38.138Z,10.60
2022-10-06T05:35:21.929Z,10.66
2022-10-06T05:38:04.435Z,10.72
2022-10-06T05:40:33.469Z,10.77
2022-10-06T05:43:02.315Z,10.82
2022-10-06T05:45:56.277Z,10.88
2022-10-06T05:48:38.915Z,10.93
2022-10-06T05:51:10.254Z,10.97
2022-10-06T05:53:40.994Z,11.02
2022-10-06T05:56:15.282Z,11.06
2022-10-06T05:58:59.429Z,11.11
2022-10-06T06:01:44.318Z,11.15
2022-10-06T06:04:40.999Z,11.19
2022-10-06T06:07:23.422Z,11.22
2022-10-06T06:10:06.145Z,11.26
2022-10-06T06:12:35.788Z,11.30
2022-10-06T06:15:43.220Z,11.33
2022-10-06T06:18:13.414Z,11.38
2022-10-06T06:20:42.672Z,11.42
2022-10-06T06:23:25.702Z,11.48
2022-10-06T06:26:02.949Z,11.52
2022-10-06T06:28:37.385Z,11.56
2022-10-06T06:31:28.207Z,11.59
2022-10-06T06:34:12.280Z,11.61
2022-10-06T06:36:46.037Z,11.61
2022-10-06T06:39:31.126Z,11.66
2022-10-06T06:42:02.224Z,11.70
2022-10-06T06:44:57.656Z,11.76
2022-10-06T06:47:32.425Z,11.82
2022-10-06T06:50:17.943Z,11.89
2022-10-06T06:53:02.722Z,11.98
2022-10-06T06:55:34.189Z,12.06
2022-10-06T06:58:18.104Z,12.15
2022-10-06T07:01:13.910Z,12.25
2022-10-06T07:04:02.452Z,12.34
2022-10-06T07:06:53.557Z,12.43
2022-10-06T07:09:24.133Z,12.52
2022-10-06T07:11:55.355Z,12.62
2022-10-06T07:14:58.556Z,12.71
2022-10-06T07:17:59.762Z,12.83
2022-10-06T07:21:02.060Z,12.96
2022-10-06T07:23:49.569Z,13.08
2022-10-06T07:26:35.358Z,13.22
2022-10-06T07:29:04.126Z,13.33
2022-10-06T07:31:48.057Z,13.44
2022-10-06T07:34:31.576Z,13.54
2022-10-06T07:37:14.154Z,13.65
2022-10-06T07:39:56.814Z,13.75
2022-10-06T07:42:25.724Z,13.84
2022-10-06T07:45:12.984Z,13.95
2022-10-06T07:48:01.443Z,14.09
2022-10-06T07:50:31.589Z,14.20
2022-10-06T07:53:01.918Z,14.32
2022-10-06T07:55:47.305Z,14.45
2022-10-06T07:58:26.229Z,14.53
2022-10-06T08:01:11.929Z,14.62
2022-10-06T08:03:43.254Z,14.73
2022-10-06T08:06:16.365Z,14.85
2022-10-06T08:08:51.705Z,14.95
2022-10-06T08:11:35.580Z,15.07
2022-10-06T08:14:04.536Z,15.11
2022-10-06T08:16:46.908Z,15.08
2022-10-06T08:19:29.239Z,15.07
2022-10-06T08:22:13.180Z,15.07
2022-10-06T08:25:04.212Z,15.07
2022-10-06T08:27:31.697Z,15.08
2022-10-06T08:30:00.986Z,15.09
2022-10-06T08:32:29.833Z,15.09
2022-10-06T08:34:59.070Z,15.12
2022-10-06T08:37:28.207Z,15.15
2022-10-06T08:39:58.233Z,15.17
2022-10-06T08:42:50.420Z,15.18
2022-10-06T08:45:29.243Z,15.20
2022-10-06T08:48:05.600Z,15.17
2022-10-06T08:50:43.593Z,15.27
2022-10-06T08:53:40.929Z,15.38
2022-10-06T08:56:18.577Z,15.41
2022-10-06T08:59:04.531Z,15.43
2022-10-06T09:01:54.912Z,15.54
2022-10-06T09:04:30.919Z,15.66
2022-10-06T09:07:25.395Z,15.71
2022-10-06T09:10:18.937Z,15.73
2022-10-06T09:12:53.903Z,15.70
2022-10-06T09:15:42.242Z,15.64
2022-10-06T09:19:03.393Z,15.69
2022-10-06T09:21:42.949Z,15.68
2022-10-06T09:24:37.757Z,15.63
2022-10-06T09:27:29.005Z,15.62
2022-10-06T09:29:58.678Z,15.64
2022-10-06T09:32:29.940Z,15.65
2022-10-06T09:35:04.922Z,15.66
2022-10-06T09:38:09.072Z,15.71
2022-10-06T09:40:40.465Z,15.73
2022-10-06T09:43:28.722Z,15.74
2022-10-06T09:46:31.698Z,15.75
2022-10-06T09:49:25.481Z,15.76
2022-10-06T09:52:15.447Z,15.78
2022-10-06T09:55:12.706Z,15.82
2022-10-06T09:57:50.574Z,15.83
2022-10-06T10:00:31.994Z,15.85
2022-10-06T10:03:07.880Z,15.90
2022-10-06T10:05:40.117Z,15.90
2022-10-06T10:08:14.574Z,15.90
2022-10-06T10:10:43.301Z,15.96
2022-10-06T10:13:44.435Z,16.09
2022-10-06T10:16:17.193Z,16.26
2022-10-06T10:18:51.122Z,16.29
2022-10-06T10:21:35.715Z,16.28
2022-10-06T10:24:34.749Z,16.32
2022-10-06T10:27:16.193Z,16.37
2022-10-06T10:30:18.942Z,16.39
2022-10-06T10:33:16.589Z,16.54
2022-10-06T10:35:53.173Z,16.65
2022-10-06T10:38:42.983Z,16.76
2022-10-06T10:41:31.906Z,16.77
2022-10-06T10:44:28.617Z,16.70
2022-10-06T10:47:11.862Z,16.60
2022-10-06T10:49:45.746Z,16.53
2022-10-06T10:52:34.806Z,16.56
2022-10-06T10:55:18.611Z,16.62
2022-10-06T10:57:50.673Z,16.74
2022-10-06T11:00:37.969Z,16.93
2022-10-06T11:03:20.459Z,17.14
2022-10-06T11:06:15.455Z,17.17
2022-10-06T11:08:57.317Z,17.11
2022-10-06T11:11:53.708Z,17.02
2022-10-06T11:14:58.298Z,17.08
2022-10-06T11:17:46.001Z,17.15
2022-10-06T11:20:53.879Z,17.18
2022-10-06T11:23:55.115Z,17.17
2022-10-06T11:27:17.243Z,17.15
2022-10-06T11:30:15.410Z,17.18
2022-10-06T11:33:24.794Z,17.27
2022-10-06T11:36:14.161Z,17.37
2022-10-06T11:39:20.464Z,17.46
2022-10-06T11:42:15.378Z,17.42
2022-10-06T11:44:48.655Z,17.48
2022-10-06T11:47:35.114Z,17.47
2022-10-06T11:50:45.207Z,17.55
2022-10-06T11:53:39.145Z,17.50
2022-10-06T11:56:20.898Z,17.41
2022-10-06T11:58:53.339Z,17.22
2022-10-06T12:01:34.887Z,17.10
2022-10-06T12:04:22.071Z,17.00
2022-10-06T12:07:07.272Z,16.89
2022-10-06T12:09:51.131Z,16.78
2022-10-06T12:12:24.874Z,16.71
2022-10-06T12:17:09.475Z,16.72
2022-10-06T12:18:33.015Z,16.71
2022-10-06T12:21:33.134Z,16.58
2022-10-06T12:24:37.242Z,16.55
2022-10-06T12:27:41.509Z,16.57
2022-10-06T12:30:29.000Z,16.44
2022-10-06T12:33:19.916Z,16.23
2022-10-06T12:36:19.156Z,16.13
2022-10-06T12:39:02.404Z,16.21
2022-10-06T12:41:56.447Z,16.31
2022-10-06T12:44:30.852Z,16.39
2022-10-06T12:47:05.754Z,16.39
2022-10-06T12:49:43.691Z,16.32
2022-10-06T12:52:27.470Z,16.22
2022-10-06T12:55:12.803Z,16.09
2022-10-06T12:57:55.975Z,15.92
2022-10-06T13:00:40.389Z,15.82
2022-10-06T13:03:26.948Z,15.76
2022-10-06T13:05:59.402Z,15.78
2022-10-06T13:08:34.101Z,15.89
2022-10-06T13:11:21.660Z,16.01
2022-10-06T13:14:14.272Z,16.13
2022-10-06T13:16:47.323Z,16.20
2022-10-06T13:19:21.626Z,16.23
2022-10-06T13:21:51.478Z,16.22
2022-10-06T13:24:34.266Z,16.20
2022-10-06T13:27:18.112Z,16.27
2022-10-06T13:30:19.198Z,16.33
2022-10-06T13:32:55.939Z,16.37
2022-10-06T13:35:39.058Z,16.44
2022-10-06T13:38:08.195Z,16.51
2022-10-06T13:41:18.026Z,16.55
2022-10-06T13:43:53.032Z,16.56
2022-10-06T13:46:40.815Z,16.55
2022-10-06T13:49:30.052Z,16.41
2022-10-06T13:52:31.830Z,16.28
2022-10-06T13:55:25.609Z,16.14
2022-10-06T13:58:00.082Z,16.02
2022-10-06T14:00:33.131Z,15.99
2022-10-06T14:03:05.323Z,16.08
2022-10-06T14:05:49.693Z,16.19
2022-10-06T14:08:28.307Z,16.30
2022-10-06T14:11:07.295Z,16.41
2022-10-06T14:13:49.880Z,16.48
2022-10-06T14:16:32.700Z,16.52
2022-10-06T14:19:37.375Z,16.59
2022-10-06T14:22:35.480Z,16.64
2022-10-06T14:25:12.623Z,16.70
2022-10-06T14:27:41.414Z,16.68
2022-10-06T14:30:23.910Z,16.60
2022-10-06T14:33:06.516Z,16.46
2022-10-06T14:35:35.273Z,16.34
2022-10-06T14:38:17.889Z,16.19
2022-10-06T14:41:03.496Z,16.13
2022-10-06T14:43:47.636Z,16.10
2022-10-06T14:46:16.700Z,16.08
2022-10-06T14:49:00.374Z,16.07
2022-10-06T14:51:44.404Z,16.07
2022-10-06T14:54:27.020Z,16.05
2022-10-06T14:57:09.394Z,16.04
2022-10-06T14:59:38.558Z,16.01
2022-10-06T15:02:21.531Z,15.99
2022-10-06T15:05:04.200Z,15.96
2022-10-06T15:08:05.267Z,15.93
2022-10-06T15:10:54.204Z,15.88
2022-10-06T15:13:23.048Z,15.85
2022-10-06T15:15:58.321Z,15.84
2022-10-06T15:18:27.765Z,15.81
2022-10-06T15:21:11.720Z,15.76
2022-10-06T15:23:40.701Z,15.71
2022-10-06T15:26:42.143Z,15.64
2022-10-06T15:29:11.709Z,15.58
2022-10-06T15:31:55.599Z,15.53
2022-10-06T15:34:38.285Z,15.46
2022-10-06T15:37:21.216Z,15.39
2022-10-06T15:40:05.830Z,15.33
2022-10-06T15:42:34.715Z,15.26
2022-10-06T15:45:07.470Z,15.18
2022-10-06T15:47:36.540Z,15.11
2022-10-06T15:50:19.588Z,15.03
2022-10-06T15:52:48.740Z,14.99
2022-10-06T15:55:31.376Z,14.93
2022-10-06T15:58:00.150Z,14.86
2022-10-06T16:00:29.569Z,14.80
2022-10-06T16:02:58.736Z,14.72
2022-10-06T16:05:45.979Z,14.62
2022-10-06T16:08:28.509Z,14.48
2022-10-06T16:10:57.430Z,14.38
2022-10-06T16:13:39.813Z,14.28
2022-10-06T16:16:22.160Z,14.19
2022-10-06T16:18:51.032Z,14.11
2022-10-06T16:21:19.677Z,14.05
2022-10-06T16:24:02.479Z,13.94
2022-10-06T16:26:31.778Z,13.86
2022-10-06T16:29:15.842Z,13.77
2022-10-06T16:31:59.454Z,13.70
2022-10-06T16:34:41.826Z,13.62
2022-10-06T16:37:13.690Z,13.55
2022-10-06T16:39:56.192Z,13.49
2022-10-06T16:42:38.982Z,13.43
2022-10-06T16:45:08.586Z,13.36
2022-10-06T16:47:51.031Z,13.28
2022-10-06T16:53:17.505Z,13.13
2022-10-06T16:55:59.986Z,13.05
2022-10-06T16:58:35.840Z,12.98
2022-10-06T17:01:05.627Z,12.92
2022-10-06T17:03:34.829Z,12.85
2022-10-06T17:06:12.506Z,12.79
2022-10-06T17:08:42.844Z,12.75
2022-10-06T17:11:26.589Z,12.69
2022-10-06T17:13:58.204Z,12.63
2022-10-06T17:16:43.266Z,12.57
2022-10-06T17:19:29.417Z,12.52
2022-10-06T17:21:59.870Z,12.48
2022-10-06T17:24:29.824Z,12.44
2022-10-06T17:26:59.276Z,12.38
2022-10-06T17:29:41.694Z,12.34
2022-10-06T17:32:24.041Z,12.30
2022-10-06T17:34:54.346Z,12.27
2022-10-06T17:37:37.268Z,12.22
2022-10-06T17:40:06.256Z,12.18
2022-10-06T17:42:48.586Z,12.12
2022-10-06T17:45:21.048Z,12.07
2022-10-06T17:48:03.960Z,12.01
2022-10-06T17:53:47.031Z,11.87
2022-10-06T17:56:18.758Z,11.81
2022-10-06T17:59:04.154Z,11.76
2022-10-06T18:01:46.619Z,11.69
2022-10-06T18:04:30.049Z,11.63
2022-10-06T18:07:12.493Z,11.56
2022-10-06T18:10:13.599Z,11.48
2022-10-06T18:12:42.932Z,11.40
2022-10-06T18:15:12.633Z,11.36
2022-10-06T18:17:54.911Z,11.33
2022-10-06T18:20:30.424Z,11.29
2022-10-06T18:22:59.034Z,11.24
2022-10-06T18:25:28.174Z,11.17
2022-10-06T18:27:57.037Z,11.11
2022-10-06T18:30:29.353Z,11.05
2022-10-06T18:35:57.684Z,10.97
2022-10-06T18:36:15.052Z,10.91
2022-10-06T18:39:00.817Z,10.85
2022-10-06T18:41:44.050Z,10.80
2022-10-06T18:44:13.016Z,10.76
2022-10-06T18:47:00.681Z,10.73
2022-10-06T18:49:43.292Z,10.67
2022-10-06T18:52:12.660Z,10.62
2022-10-06T18:54:54.951Z,10.55
2022-10-06T18:57:37.749Z,10.49
2022-10-06T19:00:20.097Z,10.45
2022-10-06T19:02:52.407Z,10.42
2022-10-06T19:05:21.137Z,10.38
2022-10-06T19:08:04.838Z,10.34
2022-10-06T19:11:07.662Z,10.31
2022-10-06T19:13:53.519Z,10.26
2022-10-06T19:16:22.809Z,10.23
2022-10-06T19:18:51.792Z,10.19
2022-10-06T19:21:20.891Z,10.15
2022-10-06T19:23:50.586Z,10.11
2022-10-06T19:26:22.476Z,10.09
2022-10-06T19:28:51.340Z,10.07
2022-10-06T19:31:34.547Z,10.05
2022-10-06T19:34:04.657Z,10.02
2022-10-06T19:36:33.247Z,10.00
2022-10-06T19:39:16.626Z,9.96
2022-10-06T19:42:03.981Z,9.91
2022-10-06T19:44:46.800Z,9.84
2022-10-06T19:47:16.669Z,9.81
2022-10-06T19:49:45.252Z,9.79
2022-10-06T19:52:14.951Z,9.78
2022-10-06T19:54:44.758Z,9.76
2022-10-06T19:57:13.605Z,9.74
2022-10-06T19:59:42.347Z,9.71
2022-10-06T20:02:12.191Z,9.69
2022-10-06T20:04:41.284Z,9.67
2022-10-06T20:07:10.106Z,9.63
2022-10-06T20:09:52.623Z,9.58
2022-10-06T20:12:35.445Z,9.54
2022-10-06T20:15:05.530Z,9.49
2022-10-06T20:17:35.486Z,9.46
2022-10-06T20:20:19.156Z,9.43
2022-10-06T20:22:50.070Z,9.40
2022-10-06T20:25:18.868Z,9.38
2022-10-06T20:27:47.576Z,9.35
2022-10-06T20:30:16.410Z,9.34
2022-10-06T20:32:45.131Z,9.32
2022-10-06T20:35:15.628Z,9.29
2022-10-06T20:37:57.867Z,9.27
2022-10-06T20:40:44.987Z,9.26
2022-10-06T20:43:27.450Z,9.22
2022-10-06T20:45:56.225Z,9.19
2022-10-06T20:48:26.425Z,9.15
2022-10-06T20:50:56.762Z,9.13
2022-10-06T20:53:31.678Z,9.09
2022-10-06T20:56:14.876Z,9.07
2022-10-06T20:58:58.022Z,9.04
2022-10-06T21:01:27.570Z,9.00
2022-10-06T21:03:56.267Z,8.97
2022-10-06T21:06:24.915Z,8.93
2022-10-06T21:08:55.314Z,8.91
2022-10-06T21:11:26.755Z,8.87
2022-10-06T21:14:11.789Z,8.86
2022-10-06T21:16:44.027Z,8.86
2022-10-06T21:19:27.222Z,8.85
2022-10-06T21:21:56.228Z,8.82
2022-10-06T21:24:38.634Z,8.80
2022-10-06T21:27:21.310Z,8.78
2022-10-06T21:30:04.128Z,8.73
2022-10-06T21:32:33.195Z,8.67
2022-10-06T21:35:15.549Z,8.60
2022-10-06T21:37:44.876Z,8.55
2022-10-06T21:40:27.821Z,8.50
2022-10-06T21:43:10.338Z,8.48
2022-10-06T21:45:39.936Z,8.46
2022-10-06T21:48:09.818Z,8.44
2022-10-06T21:50:38.755Z,8.42
2022-10-06T21:53:22.050Z,8.40
2022-10-06T21:56:04.627Z,8.41
2022-10-06T21:58:53.129Z,8.39
2022-10-06T22:01:38.888Z,8.37
2022-10-06T22:04:21.314Z,8.36
2022-10-06T22:07:03.808Z,8.33
2022-10-06T22:09:46.317Z,8.32
2022-10-06T22:12:15.455Z,8.31
2022-10-06T22:14:44.525Z,8.31
2022-10-06T22:17:27.213Z,8.29
2022-10-06T22:19:55.878Z,8.27
2022-10-06T22:22:24.986Z,8.25
2022-10-06T22:24:53.963Z,8.23
2022-10-06T22:27:23.109Z,8.20
2022-10-06T22:29:52.229Z,8.17
2022-10-06T22:32:34.816Z,8.15
2022-10-06T22:35:03.769Z,8.13
2022-10-06T22:37:46.731Z,8.12
2022-10-06T22:40:15.858Z,8.12
2022-10-06T22:42:58.367Z,8.11
2022-10-06T22:45:40.855Z,8.10
2022-10-06T22:48:23.867Z,8.09
2022-10-06T22:50:52.967Z,8.06
2022-10-06T22:53:24.335Z,8.03
2022-10-06T22:55:53.536Z,8.01
2022-10-06T22:58:36.243Z,8.01
2022-10-06T23:01:19.903Z,7.99
2022-10-06T23:03:49.058Z,7.97
2022-10-06T23:06:19.684Z,7.94
2022-10-06T23:08:48.670Z,7.92
2022-10-06T23:11:20.994Z,7.90
2022-10-06T23:13:51.068Z,7.88
2022-10-06T23:16:21.218Z,7.88
2022-10-06T23:19:03.886Z,7.87
2022-10-06T23:21:46.398Z,7.85
2022-10-06T23:24:28.950Z,7.84
2022-10-06T23:27:11.465Z,7.82
2022-10-06T23:29:40.215Z,7.82
2022-10-06T23:32:09.040Z,7.80
2022-10-06T23:34:38.263Z,7.78
2022-10-06T23:37:07.021Z,7.75
2022-10-06T23:39:49.713Z,7.72
2022-10-06T23:42:18.626Z,7.69
2022-10-06T23:44:47.748Z,7.66
2022-10-06T23:47:30.146Z,7.64
2022-10-06T23:49:58.975Z,7.61
2022-10-06T23:52:28.750Z,7.60
2022-10-06T23:54:57.611Z,7.59
2022-10-06T23:57:26.391Z,7.57
